Time;durP1;ratioP1;P1;durP2;ratioP2;P2;SDS_P1;SDS_P2;PMS_P1;PMS_P2;Temp;Humidity;BMP_temperature;BMP_pressure;BME280_temperature;BME280_humidity;BME280_pressure;Samples;Min_cycle;Max_cycle;Signal;HPM_P1;HPM_P2
2023/06/16 00:01:31;;;;;;;;;;;21.00;99.90;;;;;;5073543;28;19905;-74
2023/06/16 00:03:58;;;;;;;;;;;21.00;99.90;;;;;;5073417;28;19904;-74
2023/06/16 00:06:29;;;;;;;;;;;21.00;99.90;;;;;;5073382;28;19904;-74
2023/06/16 00:08:56;;;;;;;;;;;21.00;99.90;;;;;;5073513;28;20321;-74
2023/06/16 00:11:22;;;;;;;;;;;21.00;99.90;;;;;;5055364;28;20390;-74
2023/06/16 00:13:49;;;;;;;;;;;21.00;99.90;;;;;;5054979;28;20378;-74
2023/06/16 00:16:19;;;;;;;;;;;21.00;99.90;;;;;;5073468;28;19904;-75
2023/06/16 00:18:45;;;;;;;;;;;20.90;99.90;;;;;;5073234;28;20379;-73
2023/06/16 00:21:13;;;;;;;;;;;20.90;99.90;;;;;;5073647;28;19985;-74
2023/06/16 00:23:40;;;;;;;;;;;20.80;99.90;;;;;;5087004;28;19911;-74
2023/06/16 00:26:05;;;;;;;;;;;20.80;99.90;;;;;;5093679;28;19911;-74
2023/06/16 00:28:31;;;;;;;;;;;20.80;99.90;;;;;;5093053;28;19928;-74
2023/06/16 00:30:57;;;;;;;;;;;20.80;99.90;;;;;;5093821;28;19904;-74
2023/06/16 00:33:23;;;;;;;;;;;20.80;99.90;;;;;;5093198;28;19908;-73
2023/06/16 00:35:54;;;;;;;;;;;20.80;99.90;;;;;;5093732;28;20002;-74
2023/06/16 00:38:20;;;;;;;;;;;20.80;99.90;;;;;;5093148;28;20372;-74
2023/06/16 00:40:46;;;;;;;;;;;20.70;99.90;;;;;;5093203;28;19904;-72
2023/06/16 00:43:12;;;;;;;;;;;20.70;99.90;;;;;;5074635;28;20056;-73
2023/06/16 00:45:38;;;;;;;;;;;20.70;99.90;;;;;;5093014;28;19917;-74
2023/06/16 00:48:04;;;;;;;;;;;20.60;99.90;;;;;;5093655;28;19996;-74
2023/06/16 00:50:30;;;;;;;;;;;20.60;99.90;;;;;;5093127;28;19908;-74
2023/06/16 00:52:57;;;;;;;;;;;20.60;99.90;;;;;;5093155;28;19972;-74
2023/06/16 00:55:23;;;;;;;;;;;20.60;99.90;;;;;;5093493;28;20003;-74
2023/06/16 00:57:49;;;;;;;;;;;20.60;99.90;;;;;;5093232;28;19950;-73
2023/06/16 01:00:15;;;;;;;;;;;20.60;99.90;;;;;;5093019;28;19915;-73
2023/06/16 01:02:44;;;;;;;;;;;20.70;99.90;;;;;;5092972;28;19904;-75
2023/06/16 01:05:10;;;;;;;;;;;20.70;99.90;;;;;;5092905;28;19973;-73
2023/06/16 01:07:41;;;;;;;;;;;20.70;99.90;;;;;;5091559;28;20348;-74
2023/06/16 01:10:13;;;;;;;;;;;20.60;99.90;;;;;;5093314;28;19916;-74
2023/06/16 01:13:00;;;;;;;;;;;20.60;99.90;;;;;;5093096;28;19916;-74
2023/06/16 01:15:28;;;;;;;;;;;20.60;99.90;;;;;;5092413;28;19915;-73
2023/06/16 01:17:56;;;;;;;;;;;20.50;99.90;;;;;;5093234;28;19904;-74
2023/06/16 01:20:29;;;;;;;;;;;20.50;99.90;;;;;;5092720;28;20378;-73
2023/06/16 01:23:04;;;;;;;;;;;20.40;99.90;;;;;;5092874;28;19911;-74
2023/06/16 01:25:31;;;;;;;;;;;20.40;99.90;;;;;;5092827;28;19904;-72
2023/06/16 01:27:57;;;;;;;;;;;20.40;99.90;;;;;;5092865;28;19911;-74
2023/06/16 01:30:24;;;;;;;;;;;20.40;99.90;;;;;;5092912;28;20380;-73
2023/06/16 01:32:55;;;;;;;;;;;20.30;99.90;;;;;;5093168;28;19904;-74
2023/06/16 01:35:22;;;;;;;;;;;20.30;99.90;;;;;;5092611;28;19904;-73
2023/06/16 01:37:51;;;;;;;;;;;20.30;99.90;;;;;;5093063;28;20265;-73
2023/06/16 01:40:17;;;;;;;;;;;20.30;99.90;;;;;;5092574;28;19904;-75
2023/06/16 01:42:45;;;;;;;;;;;20.40;99.90;;;;;;5093010;28;19908;-73
2023/06/16 01:45:11;;;;;;;;;;;20.40;99.90;;;;;;5092449;28;19985;-74
2023/06/16 01:47:37;;;;;;;;;;;20.40;99.90;;;;;;5092456;28;20275;-73
2023/06/16 01:50:03;;;;;;;;;;;20.40;99.90;;;;;;5092367;28;19927;-73
2023/06/16 01:52:29;;;;;;;;;;;20.50;99.90;;;;;;5092483;28;20391;-74
2023/06/16 01:54:55;;;;;;;;;;;20.50;99.90;;;;;;5096143;28;20076;-74
2023/06/16 01:57:21;;;;;;;;;;;20.60;99.90;;;;;;5096641;28;19911;-73
2023/06/16 01:59:50;;;;;;;;;;;20.50;99.90;;;;;;5095751;28;19904;-74
2023/06/16 02:02:17;;;;;;;;;;;20.50;99.90;;;;;;5078161;28;20276;-74
2023/06/16 02:04:45;;;;;;;;;;;20.50;99.90;;;;;;5094630;28;19919;-74
2023/06/16 02:07:14;;;;;;;;;;;20.50;99.90;;;;;;5095922;28;19904;-74
2023/06/16 02:09:40;;;;;;;;;;;20.50;99.90;;;;;;5096313;28;19912;-73
2023/06/16 02:12:09;;;;;;;;;;;20.50;99.90;;;;;;5096085;28;19904;-74
2023/06/16 02:14:35;;;;;;;;;;;20.50;99.90;;;;;;5075509;28;19971;-74
2023/06/16 02:17:05;;;;;;;;;;;20.50;99.90;;;;;;5075760;28;20422;-75
2023/06/16 02:19:32;;;;;;;;;;;20.50;99.90;;;;;;5075504;28;19912;-74
2023/06/16 02:21:58;;;;;;;;;;;20.50;99.90;;;;;;5075666;28;19904;-74
2023/06/16 02:24:24;;;;;;;;;;;20.50;99.90;;;;;;5075318;28;19904;-73
2023/06/16 02:26:50;;;;;;;;;;;20.60;99.90;;;;;;5075556;28;19904;-74
2023/06/16 02:29:16;;;;;;;;;;;20.50;99.90;;;;;;5075316;28;20009;-74
2023/06/16 02:31:48;;;;;;;;;;;20.50;99.90;;;;;;5075251;28;19905;-74
2023/06/16 02:34:15;;;;;;;;;;;20.40;99.90;;;;;;5075442;28;20252;-73
2023/06/16 02:36:40;;;;;;;;;;;20.50;99.90;;;;;;5075091;28;19905;-74
2023/06/16 02:39:09;;;;;;;;;;;20.50;99.90;;;;;;5075549;28;19912;-74
2023/06/16 02:41:36;;;;;;;;;;;20.50;99.90;;;;;;5075013;28;19911;-74
2023/06/16 02:44:03;;;;;;;;;;;20.50;99.90;;;;;;5074929;28;19995;-74
2023/06/16 02:46:28;;;;;;;;;;;20.50;99.90;;;;;;5075179;28;19912;-74
2023/06/16 02:48:54;;;;;;;;;;;20.50;99.90;;;;;;5075101;28;19916;-73
2023/06/16 02:51:20;;;;;;;;;;;20.40;99.90;;;;;;5074886;28;19944;-73
2023/06/16 02:53:46;;;;;;;;;;;20.40;99.90;;;;;;5075064;28;19994;-74
2023/06/16 02:56:12;;;;;;;;;;;20.40;99.90;;;;;;5074847;28;20053;-74
2023/06/16 02:58:38;;;;;;;;;;;20.40;99.90;;;;;;5074933;28;20344;-73
2023/06/16 03:01:04;;;;;;;;;;;20.40;99.90;;;;;;5073354;28;19972;-74
2023/06/16 03:03:31;;;;;;;;;;;20.40;99.90;;;;;;5075119;28;19904;-74
2023/06/16 03:05:58;;;;;;;;;;;20.40;99.90;;;;;;5073739;28;19904;-75
2023/06/16 03:08:25;;;;;;;;;;;20.30;99.90;;;;;;5074548;28;19909;-73
2023/06/16 03:10:51;;;;;;;;;;;20.20;99.90;;;;;;5074559;28;19916;-75
2023/06/16 03:13:17;;;;;;;;;;;20.20;99.90;;;;;;5084041;28;19970;-74
2023/06/16 03:15:46;;;;;;;;;;;20.10;99.90;;;;;;5094517;28;19915;-73
2023/06/16 03:18:12;;;;;;;;;;;20.10;99.90;;;;;;5094620;28;19980;-75
2023/06/16 03:20:40;;;;;;;;;;;20.20;99.90;;;;;;5095018;28;20335;-73
2023/06/16 03:23:06;;;;;;;;;;;20.20;99.90;;;;;;5094394;28;19927;-74
2023/06/16 03:25:32;;;;;;;;;;;20.30;99.90;;;;;;5094647;28;19904;-74
2023/06/16 03:27:59;;;;;;;;;;;20.30;99.90;;;;;;5094390;28;19904;-73
2023/06/16 03:30:25;;;;;;;;;;;20.30;99.90;;;;;;5094221;28;19908;-72
2023/06/16 03:32:51;;;;;;;;;;;20.30;99.90;;;;;;5092981;28;19950;-73
2023/06/16 03:35:17;;;;;;;;;;;20.30;99.90;;;;;;5094804;28;19943;-73
2023/06/16 03:37:43;;;;;;;;;;;20.30;99.90;;;;;;5094177;28;20379;-73
2023/06/16 03:40:09;;;;;;;;;;;20.30;99.90;;;;;;5094401;28;19904;-75
2023/06/16 03:42:36;;;;;;;;;;;20.20;99.90;;;;;;5092783;28;19904;-75
2023/06/16 03:45:03;;;;;;;;;;;20.20;99.90;;;;;;5075540;28;20241;-74
2023/06/16 03:47:29;;;;;;;;;;;20.20;99.90;;;;;;5093914;28;19946;-73
2023/06/16 03:49:55;;;;;;;;;;;20.20;99.90;;;;;;5093916;28;20020;-73
2023/06/16 03:52:21;;;;;;;;;;;20.20;99.90;;;;;;5094317;28;19911;-74
2023/06/16 03:54:48;;;;;;;;;;;20.20;99.90;;;;;;5093890;28;20058;-73
2023/06/16 03:57:14;;;;;;;;;;;20.20;99.90;;;;;;5093829;28;19956;-72
2023/06/16 03:59:40;;;;;;;;;;;20.20;99.90;;;;;;5093939;28;20017;-73
2023/06/16 04:02:08;;;;;;;;;;;20.20;99.90;;;;;;5075494;28;19961;-74
2023/06/16 04:04:34;;;;;;;;;;;20.20;99.90;;;;;;5094144;28;19904;-74
2023/06/16 04:07:00;;;;;;;;;;;20.20;99.90;;;;;;5093655;28;20311;-75
2023/06/16 04:09:26;;;;;;;;;;;20.30;99.90;;;;;;5093985;28;19912;-75
2023/06/16 04:11:52;;;;;;;;;;;20.30;99.90;;;;;;5093538;28;19904;-74
2023/06/16 04:14:18;;;;;;;;;;;20.30;99.90;;;;;;5093180;28;19915;-74
2023/06/16 04:16:44;;;;;;;;;;;20.20;99.90;;;;;;5094095;28;20261;-74
2023/06/16 04:19:10;;;;;;;;;;;20.20;99.90;;;;;;5093767;28;19950;-74
2023/06/16 04:21:37;;;;;;;;;;;20.30;99.90;;;;;;5093543;28;19939;-74
2023/06/16 04:24:04;;;;;;;;;;;20.30;99.90;;;;;;5093497;28;20029;-73
2023/06/16 04:26:32;;;;;;;;;;;20.40;99.90;;;;;;5094031;28;19904;-76
2023/06/16 04:29:03;;;;;;;;;;;20.50;99.90;;;;;;5093123;28;20061;-74
2023/06/16 04:31:31;;;;;;;;;;;20.60;99.90;;;;;;5093998;28;20348;-75
2023/06/16 04:33:58;;;;;;;;;;;20.70;99.90;;;;;;5093637;28;20004;-73
2023/06/16 04:36:29;;;;;;;;;;;20.80;99.90;;;;;;5093328;28;19992;-74
2023/06/16 04:38:56;;;;;;;;;;;20.90;99.90;;;;;;5093816;28;19961;-74
2023/06/16 04:41:23;;;;;;;;;;;20.80;99.90;;;;;;5093448;28;19904;-74
2023/06/16 04:43:48;;;;;;;;;;;21.00;99.90;;;;;;5093193;28;19904;-75
2023/06/16 04:46:14;;;;;;;;;;;21.00;99.90;;;;;;5093337;28;19904;-74
2023/06/16 04:48:40;;;;;;;;;;;21.00;99.90;;;;;;5093095;28;19931;-74
2023/06/16 04:51:06;;;;;;;;;;;20.80;99.90;;;;;;5093719;28;19995;-74
2023/06/16 04:53:32;;;;;;;;;;;20.80;99.90;;;;;;5075087;28;19974;-74
2023/06/16 04:55:57;;;;;;;;;;;20.90;99.90;;;;;;5093031;28;19928;-74
2023/06/16 04:58:23;;;;;;;;;;;20.80;99.90;;;;;;5093606;28;19977;-73
2023/06/16 05:00:50;;;;;;;;;;;21.20;99.90;;;;;;5092874;28;19908;-74
2023/06/16 05:03:16;;;;;;;;;;;22.60;99.90;;;;;;5093106;28;19954;-75
2023/06/16 05:05:43;;;;;;;;;;;24.10;99.90;;;;;;5091716;28;19908;-74
2023/06/16 05:08:09;;;;;;;;;;;25.40;99.90;;;;;;5092907;28;20005;-74
2023/06/16 05:10:35;;;;;;;;;;;26.30;99.90;;;;;;5092575;28;19995;-74
2023/06/16 05:13:01;;;;;;;;;;;27.10;99.90;;;;;;5092536;28;20343;-75
2023/06/16 05:15:27;;;;;;;;;;;28.10;99.90;;;;;;5092462;28;20394;-73
2023/06/16 05:17:53;;;;;;;;;;;28.60;99.90;;;;;;5092525;28;19904;-72
2023/06/16 05:20:18;;;;;;;;;;;29.00;99.90;;;;;;5092894;28;20013;-74
2023/06/16 05:22:44;;;;;;;;;;;29.30;99.90;;;;;;5092518;28;20414;-73
2023/06/16 05:25:36;;;;;;;;;;;29.80;99.90;;;;;;5099206;28;19915;-72
2023/06/16 05:28:01;;;;;;;;;;;30.20;99.90;;;;;;5093325;28;20007;-73
2023/06/16 05:30:27;;;;;;;;;;;30.40;99.90;;;;;;5096223;28;20310;-73
2023/06/16 05:32:53;;;;;;;;;;;30.30;99.90;;;;;;5096824;28;20221;-73
2023/06/16 05:35:19;;;;;;;;;;;30.20;99.90;;;;;;5096645;28;19904;-74
2023/06/16 05:37:45;;;;;;;;;;;30.30;99.90;;;;;;5096858;28;19903;-73
2023/06/16 05:40:11;;;;;;;;;;;31.60;99.90;;;;;;5096195;28;19910;-73
2023/06/16 05:42:37;;;;;;;;;;;31.50;99.90;;;;;;5077800;28;19904;-73
2023/06/16 05:45:03;;;;;;;;;;;31.60;99.90;;;;;;5095915;28;19983;-73
2023/06/16 05:47:28;;;;;;;;;;;31.80;99.90;;;;;;5095978;28;19904;-74
2023/06/16 05:49:56;;;;;;;;;;;32.20;99.90;;;;;;5096467;28;20350;-73
2023/06/16 05:52:22;;;;;;;;;;;33.30;99.90;;;;;;5096003;28;20052;-74
2023/06/16 05:54:48;;;;;;;;;;;33.70;99.90;;;;;;5095929;28;20365;-74
2023/06/16 05:57:14;;;;;;;;;;;34.80;99.90;;;;;;5095708;28;19908;-73
2023/06/16 05:59:40;;;;;;;;;;;36.80;99.90;;;;;;5094199;28;20272;-74
2023/06/16 06:02:05;;;;;;;;;;;35.20;99.90;;;;;;5096184;28;19904;-73
2023/06/16 06:04:32;;;;;;;;;;;33.60;99.90;;;;;;5077512;28;20378;-74
2023/06/16 06:06:58;;;;;;;;;;;33.00;99.90;;;;;;5096178;28;20000;-74
2023/06/16 06:09:24;;;;;;;;;;;34.30;99.90;;;;;;5076962;28;19916;-73
2023/06/16 06:11:50;;;;;;;;;;;34.70;99.90;;;;;;5095582;28;20018;-74
2023/06/16 06:14:16;;;;;;;;;;;33.80;99.90;;;;;;5077218;28;19920;-72
2023/06/16 06:16:42;;;;;;;;;;;33.70;99.90;;;;;;5095956;28;19927;-73
2023/06/16 06:19:08;;;;;;;;;;;33.70;99.90;;;;;;5095445;28;19912;-74
2023/06/16 06:21:35;;;;;;;;;;;33.50;99.90;;;;;;5095396;28;19908;-74
2023/06/16 06:24:01;;;;;;;;;;;34.50;99.90;;;;;;5095248;28;19968;-74
2023/06/16 06:26:27;;;;;;;;;;;34.40;99.90;;;;;;5095305;28;20317;-73
2023/06/16 06:28:53;;;;;;;;;;;36.50;99.90;;;;;;5095029;28;19923;-73
2023/06/16 06:31:19;;;;;;;;;;;36.80;99.90;;;;;;5095001;28;20357;-73
2023/06/16 06:33:45;;;;;;;;;;;37.90;99.90;;;;;;5095063;28;20356;-74
2023/06/16 06:36:11;;;;;;;;;;;38.20;99.90;;;;;;5094920;28;19990;-74
2023/06/16 06:38:37;;;;;;;;;;;39.10;99.90;;;;;;5094877;28;19962;-73
2023/06/16 06:41:03;;;;;;;;;;;39.40;99.90;;;;;;5093926;28;20021;-74
2023/06/16 06:43:29;;;;;;;;;;;39.60;99.90;;;;;;5095477;28;19958;-73
2023/06/16 06:45:55;;;;;;;;;;;37.30;99.90;;;;;;5094536;28;19911;-75
2023/06/16 06:48:21;;;;;;;;;;;37.10;99.90;;;;;;5094773;28;19914;-74
2023/06/16 06:50:48;;;;;;;;;;;37.10;99.90;;;;;;5095153;28;20295;-73
2023/06/16 06:53:13;;;;;;;;;;;38.20;99.90;;;;;;5076247;28;19908;-73
2023/06/16 06:55:39;;;;;;;;;;;37.10;99.90;;;;;;5094984;28;19911;-73
2023/06/16 06:58:05;;;;;;;;;;;35.60;99.90;;;;;;5094757;28;20037;-72
2023/06/16 07:00:31;;;;;;;;;;;34.10;99.90;;;;;;5094418;28;19904;-73
2023/06/16 07:02:57;;;;;;;;;;;34.50;99.90;;;;;;5076227;28;20263;-73
2023/06/16 07:05:22;;;;;;;;;;;34.80;99.90;;;;;;5092827;28;19949;-74
2023/06/16 07:07:48;;;;;;;;;;;35.00;99.90;;;;;;5094713;28;19950;-73
2023/06/16 07:10:14;;;;;;;;;;;36.40;99.90;;;;;;5076173;28;20007;-74
2023/06/16 07:12:40;;;;;;;;;;;36.60;99.90;;;;;;5094454;28;19994;-74
2023/06/16 07:15:06;;;;;;;;;;;37.10;99.90;;;;;;5094597;28;19934;-74
2023/06/16 07:17:34;;;;;;;;;;;37.10;99.90;;;;;;5094707;28;20320;-77
2023/06/16 07:20:00;;;;;;;;;;;37.00;99.90;;;;;;5094514;28;19996;-74
2023/06/16 07:22:26;;;;;;;;;;;36.30;99.90;;;;;;5095169;28;20345;-76
2023/06/16 07:24:52;;;;;;;;;;;36.60;99.90;;;;;;5094417;28;19951;-73
2023/06/16 07:27:18;;;;;;;;;;;36.50;99.90;;;;;;5075884;28;19904;-74
2023/06/16 07:29:44;;;;;;;;;;;36.30;99.90;;;;;;5093826;28;19916;-73
2023/06/16 07:32:10;;;;;;;;;;;35.70;99.90;;;;;;5094033;28;19904;-73
2023/06/16 07:34:37;;;;;;;;;;;35.30;99.90;;;;;;5094296;28;19904;-76
2023/06/16 07:37:03;;;;;;;;;;;33.50;99.90;;;;;;5094538;28;19957;-76
2023/06/16 07:39:29;;;;;;;;;;;33.40;99.90;;;;;;5095212;28;19904;-73
2023/06/16 07:41:55;;;;;;;;;;;33.70;99.90;;;;;;5094128;28;20420;-74
2023/06/16 07:44:21;;;;;;;;;;;33.60;99.90;;;;;;5093992;28;19908;-72
2023/06/16 07:46:47;;;;;;;;;;;33.40;99.90;;;;;;5094260;28;20314;-73
2023/06/16 07:49:15;;;;;;;;;;;33.80;99.90;;;;;;5093976;28;20020;-74
2023/06/16 07:51:41;;;;;;;;;;;33.60;99.90;;;;;;5093946;28;19946;-73
2023/06/16 07:54:07;;;;;;;;;;;33.20;99.90;;;;;;5093500;28;19903;-73
2023/06/16 07:56:33;;;;;;;;;;;33.00;99.90;;;;;;5093869;28;20401;-74
2023/06/16 07:59:00;;;;;;;;;;;32.80;99.90;;;;;;5093436;28;20008;-75
2023/06/16 08:01:26;;;;;;;;;;;32.80;99.90;;;;;;5093177;28;20220;-74
2023/06/16 08:03:52;;;;;;;;;;;32.50;99.90;;;;;;5093855;28;20309;-74
2023/06/16 08:06:18;;;;;;;;;;;32.10;99.90;;;;;;5093707;28;19904;-73
2023/06/16 08:08:44;;;;;;;;;;;31.50;99.90;;;;;;5093846;28;19938;-73
2023/06/16 08:11:10;;;;;;;;;;;30.90;99.90;;;;;;5093179;28;19908;-73
2023/06/16 08:13:35;;;;;;;;;;;30.20;99.90;;;;;;5093012;28;19955;-73
2023/06/16 08:16:01;;;;;;;;;;;29.50;99.90;;;;;;5093061;28;19919;-73
2023/06/16 08:18:27;;;;;;;;;;;29.80;99.90;;;;;;5093660;28;19911;-73
2023/06/16 08:20:53;;;;;;;;;;;30.50;99.90;;;;;;5093163;28;19911;-74
2023/06/16 08:23:24;;;;;;;;;;;31.20;99.90;;;;;;5093103;28;19911;-75
2023/06/16 08:25:50;;;;;;;;;;;31.70;99.90;;;;;;5075842;28;19915;-74
2023/06/16 08:28:16;;;;;;;;;;;32.20;99.90;;;;;;5093856;28;19904;-73
2023/06/16 08:30:42;;;;;;;;;;;32.30;99.90;;;;;;5093208;28;19904;-74
2023/06/16 08:33:09;;;;;;;;;;;32.20;99.90;;;;;;5093734;28;19904;-75
2023/06/16 08:35:35;;;;;;;;;;;32.30;99.90;;;;;;5093640;28;19977;-74
2023/06/16 08:38:01;;;;;;;;;;;32.60;99.90;;;;;;5093186;28;19904;-73
2023/06/16 08:40:27;;;;;;;;;;;31.90;99.90;;;;;;5093025;28;19904;-74
2023/06/16 08:42:54;;;;;;;;;;;32.30;99.90;;;;;;5093739;28;19910;-73
2023/06/16 08:45:20;;;;;;;;;;;32.70;99.90;;;;;;5075256;28;20011;-72
2023/06/16 08:47:46;;;;;;;;;;;32.80;99.90;;;;;;5093046;28;20383;-74
2023/06/16 08:50:14;;;;;;;;;;;32.90;99.90;;;;;;5092839;28;19919;-74
2023/06/16 08:52:40;;;;;;;;;;;33.20;99.90;;;;;;5092634;28;19904;-74
2023/06/16 08:55:08;;;;;;;;;;;33.40;99.90;;;;;;5093007;28;19904;-73
2023/06/16 08:57:35;;;;;;;;;;;33.00;99.90;;;;;;5092592;28;20331;-74
2023/06/16 09:00:02;;;;;;;;;;;32.60;99.90;;;;;;5092791;28;20318;-73
2023/06/16 09:02:30;;;;;;;;;;;31.90;99.90;;;;;;5092639;28;19904;-75
2023/06/16 09:04:58;;;;;;;;;;;31.50;99.90;;;;;;5096755;28;19915;-74
2023/06/16 09:07:27;;;;;;;;;;;30.90;99.90;;;;;;5096674;28;19911;-73
2023/06/16 09:09:53;;;;;;;;;;;30.90;99.90;;;;;;5096923;28;20275;-74
2023/06/16 09:12:19;;;;;;;;;;;30.80;99.90;;;;;;5096693;28;19922;-73
2023/06/16 09:14:49;;;;;;;;;;;31.20;99.90;;;;;;5096204;28;19928;-74
2023/06/16 09:17:18;;;;;;;;;;;31.20;99.90;;;;;;5096710;28;19908;-74
2023/06/16 09:19:47;;;;;;;;;;;30.90;99.90;;;;;;5097318;28;19911;-74
2023/06/16 09:22:18;;;;;;;;;;;30.60;99.90;;;;;;5097468;28;20030;-73
2023/06/16 09:24:45;;;;;;;;;;;30.40;99.90;;;;;;5079220;28;19904;-75
2023/06/16 09:27:12;;;;;;;;;;;30.20;99.90;;;;;;5096482;28;20012;-74
2023/06/16 09:29:38;;;;;;;;;;;29.20;99.90;;;;;;5096618;28;19912;-74
2023/06/16 09:32:08;;;;;;;;;;;28.60;99.90;;;;;;5096762;28;20025;-73
2023/06/16 09:34:35;;;;;;;;;;;29.10;99.90;;;;;;5096758;28;19998;-74
2023/06/16 09:37:03;;;;;;;;;;;29.90;99.90;;;;;;5096491;28;19904;-72
2023/06/16 09:39:29;;;;;;;;;;;30.10;99.90;;;;;;5096335;28;19950;-73
2023/06/16 09:41:56;;;;;;;;;;;30.70;99.90;;;;;;5096305;28;19904;-73
2023/06/16 09:44:23;;;;;;;;;;;31.20;99.90;;;;;;5096195;28;20309;-73
2023/06/16 09:46:50;;;;;;;;;;;31.10;99.90;;;;;;5096491;28;19908;-74
2023/06/16 09:49:21;;;;;;;;;;;31.20;99.90;;;;;;5096232;28;19912;-73
2023/06/16 09:51:51;;;;;;;;;;;31.20;99.90;;;;;;5096493;28;19911;-75
2023/06/16 09:54:18;;;;;;;;;;;31.20;99.90;;;;;;5096190;28;19916;-73
2023/06/16 09:56:44;;;;;;;;;;;30.50;99.90;;;;;;5096225;28;19915;-74
2023/06/16 09:59:11;;;;;;;;;;;30.60;99.90;;;;;;5077967;28;19904;-73
2023/06/16 10:01:40;;;;;;;;;;;30.50;99.90;;;;;;5077983;28;19904;-75
2023/06/16 10:04:08;;;;;;;;;;;30.60;99.90;;;;;;5096314;28;19912;-74
2023/06/16 10:06:34;;;;;;;;;;;30.90;99.90;;;;;;5096274;28;19910;-73
2023/06/16 10:09:00;;;;;;;;;;;31.10;99.90;;;;;;5094419;28;19908;-73
2023/06/16 10:11:28;;;;;;;;;;;31.20;99.90;;;;;;5096100;28;19904;-73
2023/06/16 10:13:56;;;;;;;;;;;30.90;99.90;;;;;;5095173;28;19916;-73
2023/06/16 10:16:25;;;;;;;;;;;30.40;99.90;;;;;;5095543;28;19949;-74
2023/06/16 10:18:52;;;;;;;;;;;30.50;99.90;;;;;;5095600;28;19961;-74
2023/06/16 10:21:18;;;;;;;;;;;30.80;99.90;;;;;;5095687;28;19908;-74
2023/06/16 10:23:44;;;;;;;;;;;30.80;99.90;;;;;;5095729;28;19904;-73
2023/06/16 10:26:11;;;;;;;;;;;31.00;99.90;;;;;;5095368;28;19998;-73
2023/06/16 10:28:37;;;;;;;;;;;30.30;99.90;;;;;;5095099;28;20003;-73
2023/06/16 10:31:04;;;;;;;;;;;30.80;99.90;;;;;;5095312;28;19914;-74
2023/06/16 10:33:50;;;;;;;;;;;31.10;99.90;;;;;;5095259;28;19904;-74
2023/06/16 10:36:19;;;;;;;;;;;31.20;99.90;;;;;;5095947;28;19904;-74
2023/06/16 10:38:53;;;;;;;;;;;31.40;99.90;;;;;;5096129;28;20051;-74
2023/06/16 10:41:19;;;;;;;;;;;30.90;99.90;;;;;;5095409;28;19956;-73
2023/06/16 10:43:45;;;;;;;;;;;30.00;99.90;;;;;;5095522;28;20384;-74
2023/06/16 10:46:15;;;;;;;;;;;30.30;99.90;;;;;;5095155;28;19925;-74
2023/06/16 10:48:56;;;;;;;;;;;31.00;99.90;;;;;;5095664;28;19911;-73
2023/06/16 10:51:42;;;;;;;;;;;31.20;99.90;;;;;;5096968;28;19911;-75
2023/06/16 10:54:09;;;;;;;;;;;30.30;99.90;;;;;;5097271;28;19904;-74
2023/06/16 10:56:59;;;;;;;;;;;30.60;99.90;;;;;;5076663;28;19908;-74
2023/06/16 10:59:25;;;;;;;;;;;30.70;99.90;;;;;;5094662;28;19912;-74
2023/06/16 11:01:55;;;;;;;;;;;31.10;99.90;;;;;;5094808;28;20225;-72
2023/06/16 11:04:21;;;;;;;;;;;31.30;99.90;;;;;;5094789;28;20260;-74
2023/06/16 11:07:07;;;;;;;;;;;31.60;99.90;;;;;;5095222;28;19904;-73
2023/06/16 11:09:32;;;;;;;;;;;31.10;99.90;;;;;;5094639;28;19912;-74
2023/06/16 11:12:05;;;;;;;;;;;31.40;99.90;;;;;;5076389;28;19929;-74
2023/06/16 11:14:31;;;;;;;;;;;31.20;99.90;;;;;;5094136;28;19916;-74
2023/06/16 11:16:57;;;;;;;;;;;30.90;99.90;;;;;;5094665;28;19927;-73
2023/06/16 11:19:23;;;;;;;;;;;30.00;99.90;;;;;;5076141;28;20029;-74
2023/06/16 11:21:49;;;;;;;;;;;30.10;99.90;;;;;;5094334;28;19904;-73
2023/06/16 11:24:15;;;;;;;;;;;30.60;99.90;;;;;;5094172;28;19912;-73
2023/06/16 11:26:41;;;;;;;;;;;30.60;99.90;;;;;;5093261;28;19904;-75
2023/06/16 11:29:07;;;;;;;;;;;30.90;99.90;;;;;;5076474;28;19954;-74
2023/06/16 11:31:38;;;;;;;;;;;30.90;99.90;;;;;;5094094;28;19911;-74
2023/06/16 11:34:04;;;;;;;;;;;30.90;99.90;;;;;;5094249;28;19904;-74
2023/06/16 11:36:32;;;;;;;;;;;30.50;99.90;;;;;;5093972;28;20413;-74
2023/06/16 11:39:00;;;;;;;;;;;30.90;99.90;;;;;;5094137;28;19912;-74
2023/06/16 11:41:27;;;;;;;;;;;31.20;99.90;;;;;;5093774;28;19911;-73
2023/06/16 11:43:54;;;;;;;;;;;31.40;99.90;;;;;;5093982;28;19969;-74
2023/06/16 11:46:24;;;;;;;;;;;31.30;99.90;;;;;;5093795;28;19904;-74
2023/06/16 11:48:51;;;;;;;;;;;31.30;99.90;;;;;;5094209;28;19920;-73
2023/06/16 11:51:17;;;;;;;;;;;31.20;99.90;;;;;;5094445;28;19908;-74
2023/06/16 11:53:44;;;;;;;;;;;31.40;99.90;;;;;;5093821;28;19923;-74
2023/06/16 11:56:14;;;;;;;;;;;31.10;99.90;;;;;;5094099;28;20014;-74
2023/06/16 11:58:42;;;;;;;;;;;31.30;99.90;;;;;;5093893;28;19904;-74
2023/06/16 12:01:08;;;;;;;;;;;31.50;99.90;;;;;;5093585;28;19904;-74
2023/06/16 12:03:35;;;;;;;;;;;31.60;99.90;;;;;;5075371;28;19910;-73
2023/06/16 12:06:03;;;;;;;;;;;31.20;99.90;;;;;;5093561;28;19904;-74
2023/06/16 12:08:43;;;;;;;;;;;30.80;99.90;;;;;;5091999;28;19951;-74
2023/06/16 12:11:09;;;;;;;;;;;31.00;99.90;;;;;;5093790;28;19919;-74
2023/06/16 12:13:36;;;;;;;;;;;31.10;99.90;;;;;;5093238;28;19920;-73
2023/06/16 12:16:07;;;;;;;;;;;31.00;99.90;;;;;;5074792;28;19933;-73
2023/06/16 12:18:32;;;;;;;;;;;31.00;99.90;;;;;;5096142;28;20340;-74
2023/06/16 12:21:11;;;;;;;;;;;31.00;99.90;;;;;;5076439;28;19911;-74
2023/06/16 12:23:37;;;;;;;;;;;31.00;99.90;;;;;;5075049;28;19981;-73
2023/06/16 12:26:03;;;;;;;;;;;31.20;99.90;;;;;;5074982;28;19911;-75
2023/06/16 12:28:29;;;;;;;;;;;31.10;99.90;;;;;;5075084;28;19904;-74
2023/06/16 12:30:58;;;;;;;;;;;30.90;99.90;;;;;;5093086;28;19912;-74
2023/06/16 12:33:25;;;;;;;;;;;31.00;99.90;;;;;;5074760;28;19904;-74
2023/06/16 12:35:52;;;;;;;;;;;31.10;99.90;;;;;;5074599;28;19908;-74
2023/06/16 12:38:29;;;;;;;;;;;31.10;99.90;;;;;;5074766;28;19904;-73
2023/06/16 12:40:55;;;;;;;;;;;30.60;99.90;;;;;;5093648;28;20049;-73
2023/06/16 12:43:24;;;;;;;;;;;30.70;99.90;;;;;;5092953;28;19908;-73
2023/06/16 12:45:51;;;;;;;;;;;30.30;99.90;;;;;;5074741;28;19959;-73
2023/06/16 12:48:17;;;;;;;;;;;30.30;99.90;;;;;;5093085;28;20003;-73
2023/06/16 12:50:42;;;;;;;;;;;30.50;99.90;;;;;;5093005;28;19955;-73
2023/06/16 12:53:08;;;;;;;;;;;30.60;99.90;;;;;;5093017;28;19931;-73
2023/06/16 12:55:34;;;;;;;;;;;30.40;99.90;;;;;;5092831;28;19990;-74
2023/06/16 12:58:00;;;;;;;;;;;30.60;99.90;;;;;;5092846;28;19912;-74
2023/06/16 13:00:27;;;;;;;;;;;30.60;99.90;;;;;;5074645;28;19995;-73
2023/06/16 13:02:53;;;;;;;;;;;30.60;99.90;;;;;;5093330;28;19903;-75
2023/06/16 13:05:20;;;;;;;;;;;30.40;99.90;;;;;;5093064;28;19995;-74
2023/06/16 13:07:47;;;;;;;;;;;30.30;99.90;;;;;;5092937;28;19908;-74
2023/06/16 13:10:13;;;;;;;;;;;30.40;99.90;;;;;;5092953;28;19923;-74
2023/06/16 13:12:39;;;;;;;;;;;30.60;99.90;;;;;;5092532;28;19953;-73
2023/06/16 13:15:05;;;;;;;;;;;30.40;99.90;;;;;;5092884;28;19950;-74
2023/06/16 13:17:31;;;;;;;;;;;30.40;99.90;;;;;;5092826;28;19904;-74
2023/06/16 13:19:57;;;;;;;;;;;30.20;99.90;;;;;;5074570;28;19926;-74
2023/06/16 13:22:23;;;;;;;;;;;30.00;99.90;;;;;;5092621;28;20385;-74
2023/06/16 13:24:49;;;;;;;;;;;29.80;99.90;;;;;;5074578;28;19904;-74
2023/06/16 13:27:15;;;;;;;;;;;29.80;99.90;;;;;;5074613;28;20345;-74
2023/06/16 13:29:41;;;;;;;;;;;30.00;99.90;;;;;;5074340;28;19912;-73
2023/06/16 13:32:07;;;;;;;;;;;29.90;99.90;;;;;;5092580;28;19910;-73
2023/06/16 13:34:33;;;;;;;;;;;29.60;99.90;;;;;;5093132;28;19904;-74
2023/06/16 13:36:58;;;;;;;;;;;29.70;99.90;;;;;;5092803;28;19951;-75
2023/06/16 13:39:24;;;;;;;;;;;29.80;99.90;;;;;;5092950;28;19904;-73
2023/06/16 13:41:50;;;;;;;;;;;29.60;99.90;;;;;;5092560;28;19984;-75
2023/06/16 13:44:16;;;;;;;;;;;29.60;99.90;;;;;;5092427;28;19904;-74
2023/06/16 13:46:42;;;;;;;;;;;29.40;99.90;;;;;;5092302;28;19919;-75
2023/06/16 13:49:08;;;;;;;;;;;29.20;99.90;;;;;;5095434;28;19919;-74
2023/06/16 13:51:34;;;;;;;;;;;29.40;99.90;;;;;;5096243;28;19904;-74
2023/06/16 13:54:00;;;;;;;;;;;29.40;99.90;;;;;;5095903;28;19991;-74
2023/06/16 13:56:26;;;;;;;;;;;29.30;99.90;;;;;;5096912;28;19911;-73
2023/06/16 13:58:55;;;;;;;;;;;29.30;99.90;;;;;;5096049;28;19943;-74
2023/06/16 14:01:21;;;;;;;;;;;29.50;99.90;;;;;;5096050;28;19904;-74
2023/06/16 14:03:47;;;;;;;;;;;29.30;99.90;;;;;;5094610;28;19910;-74
2023/06/16 14:06:13;;;;;;;;;;;29.20;99.90;;;;;;5077656;28;19911;-73
2023/06/16 14:08:39;;;;;;;;;;;29.10;99.90;;;;;;5095704;28;19907;-74
2023/06/16 14:11:05;;;;;;;;;;;29.40;99.90;;;;;;5077705;28;19904;-73
2023/06/16 14:13:31;;;;;;;;;;;29.30;99.90;;;;;;5095594;28;19923;-75
2023/06/16 14:15:56;;;;;;;;;;;29.00;99.90;;;;;;5095487;28;19904;-74